Terminal Aerodrome Forecast
Issued by NWS

Home | Current Version | Previous Version | Text Only | Print | Product List | Glossary Off
Versions: 1 2 3 4 5 6 7 8 9 10 11 12 13 14 15 16

000
FTUS43 KBIS 290800 AAA
TAFMOT
TAF AMD
KMOT 290815Z 2908/3006 31015G20KT P6SM SCT015 OVC020
      TEMPO 2908/2912 BKN015
     FM291200 31012G17KT P6SM BKN018 OVC024
     FM291600 33010KT P6SM SCT015 BKN025
      TEMPO 2922/3002 VRB03KT SCT015 BKN150
     FM300200 13004KT P6SM SCT015 BKN120=

USA.gov is the U.S. government's official web portal to all federal, state and local government web resources and services.